createdAt,value
2018-10-19T00:01:16.999Z,99.11
2018-10-19T00:03:45.215Z,98.34
2018-10-19T00:06:13.491Z,98.68
2018-10-19T00:08:41.715Z,98.56
2018-10-19T00:11:09.840Z,98.62
2018-10-19T00:13:38.160Z,98.45
2018-10-19T00:16:06.368Z,98.74
2018-10-19T00:18:34.500Z,98.65
2018-10-19T00:21:02.672Z,99.66
2018-10-19T00:23:30.911Z,100.00
2018-10-19T00:25:59.124Z,100.00
2018-10-19T00:28:27.487Z,100.00
2018-10-19T00:30:55.667Z,100.00
2018-10-19T00:33:24.021Z,100.00
2018-10-19T00:35:52.224Z,100.00
2018-10-19T00:38:20.415Z,100.00
2018-10-19T00:40:48.542Z,100.00
2018-10-19T00:43:16.821Z,100.00
2018-10-19T00:45:45.125Z,100.00
2018-10-19T00:48:14.975Z,100.00
2018-10-19T00:50:43.227Z,100.00
2018-10-19T00:53:12.135Z,100.00
2018-10-19T00:55:40.617Z,100.00
2018-10-19T00:58:09.135Z,99.69
2018-10-19T01:00:39.285Z,99.61
2018-10-19T01:03:07.780Z,99.74
2018-10-19T01:05:36.751Z,99.64
2018-10-19T01:08:05.275Z,99.91
2018-10-19T01:10:33.619Z,100.00
2018-10-19T01:13:01.747Z,100.00
2018-10-19T01:15:30.655Z,100.00
2018-10-19T01:18:00.268Z,100.00
2018-10-19T01:20:28.568Z,100.00
2018-10-19T01:22:56.707Z,100.00
2018-10-19T01:25:24.952Z,100.00
2018-10-19T01:27:53.097Z,100.00
2018-10-19T01:30:21.275Z,100.00
2018-10-19T01:32:49.509Z,100.00
2018-10-19T01:35:17.664Z,100.00
2018-10-19T01:37:46.065Z,100.00
2018-10-19T01:40:14.568Z,100.00
2018-10-19T01:42:42.695Z,100.00
2018-10-19T01:45:12.025Z,100.00
2018-10-19T01:47:40.965Z,100.00
2018-10-19T01:50:10.268Z,100.00
2018-10-19T01:52:39.068Z,100.00
2018-10-19T01:55:07.233Z,100.00
2018-10-19T01:57:35.503Z,100.00
2018-10-19T02:00:03.688Z,100.00
2018-10-19T02:02:31.916Z,100.00
2018-10-19T02:05:01.136Z,100.00
2018-10-19T02:07:29.318Z,100.00
2018-10-19T02:09:57.591Z,100.00
2018-10-19T02:12:25.830Z,100.00
2018-10-19T02:14:54.069Z,100.00
2018-10-19T02:17:22.279Z,100.00
2018-10-19T02:19:50.613Z,100.00
2018-10-19T02:22:18.984Z,100.00
2018-10-19T02:24:47.151Z,100.00
2018-10-19T02:27:15.387Z,100.00
2018-10-19T02:29:43.544Z,100.00
2018-10-19T02:32:11.677Z,100.00
2018-10-19T02:34:39.916Z,100.00
2018-10-19T02:37:08.480Z,100.00
2018-10-19T02:39:36.711Z,100.00
2018-10-19T02:42:05.095Z,100.00
2018-10-19T02:44:33.274Z,100.00
2018-10-19T02:47:02.325Z,100.00
2018-10-19T02:49:30.456Z,100.00
2018-10-19T02:51:58.601Z,100.00
2018-10-19T02:54:27.083Z,100.00
2018-10-19T02:56:55.261Z,100.00
2018-10-19T02:59:23.430Z,100.00
2018-10-19T03:01:51.615Z,100.00
2018-10-19T03:04:19.778Z,100.00
2018-10-19T03:06:47.982Z,100.00
2018-10-19T03:09:16.188Z,100.00
2018-10-19T03:11:44.386Z,100.00
2018-10-19T03:14:12.535Z,100.00
2018-10-19T03:16:40.991Z,100.00
2018-10-19T03:19:09.200Z,100.00
2018-10-19T03:21:37.519Z,100.00
2018-10-19T03:24:05.643Z,100.00
2018-10-19T03:26:33.835Z,100.00
2018-10-19T03:29:02.118Z,100.00
2018-10-19T03:31:30.320Z,100.00
2018-10-19T03:33:58.757Z,100.00
2018-10-19T03:36:26.944Z,100.00
2018-10-19T03:38:55.276Z,100.00
2018-10-19T03:41:23.423Z,100.00
2018-10-19T03:43:51.792Z,100.00
2018-10-19T03:46:19.977Z,100.00
2018-10-19T03:48:48.173Z,100.00
2018-10-19T03:51:16.403Z,100.00
2018-10-19T03:53:44.523Z,100.00
2018-10-19T03:56:12.684Z,100.00
2018-10-19T03:58:40.859Z,100.00
2018-10-19T04:01:09.363Z,100.00
2018-10-19T04:03:37.712Z,100.00
2018-10-19T04:06:05.976Z,100.00
2018-10-19T04:08:34.574Z,100.00
2018-10-19T04:11:02.811Z,100.00
2018-10-19T04:13:31.106Z,100.00
2018-10-19T04:15:59.243Z,100.00
2018-10-19T04:18:27.507Z,100.00
2018-10-19T04:20:55.919Z,100.00
2018-10-19T04:23:24.252Z,100.00
2018-10-19T04:25:52.399Z,100.00
2018-10-19T04:28:20.916Z,100.00
2018-10-19T04:30:49.267Z,100.00
2018-10-19T04:33:17.481Z,100.00
2018-10-19T04:35:45.568Z,100.00
2018-10-19T04:38:13.712Z,100.00
2018-10-19T04:40:41.924Z,100.00
2018-10-19T04:43:10.085Z,100.00
2018-10-19T04:45:38.739Z,100.00
2018-10-19T04:48:07.216Z,100.00
2018-10-19T04:50:36.108Z,100.00
2018-10-19T04:53:04.403Z,100.00
2018-10-19T04:55:32.626Z,100.00
2018-10-19T04:58:00.747Z,100.00
2018-10-19T05:00:29.139Z,100.00
2018-10-19T05:02:57.382Z,100.00
2018-10-19T05:05:25.521Z,100.00
2018-10-19T05:07:53.686Z,100.00
2018-10-19T05:10:21.787Z,100.00
2018-10-19T05:12:50.023Z,100.00
2018-10-19T05:15:18.167Z,100.00
2018-10-19T05:17:46.473Z,100.00
2018-10-19T05:20:14.928Z,100.00
2018-10-19T05:22:43.137Z,100.00
2018-10-19T05:25:12.648Z,100.00
2018-10-19T05:27:41.045Z,100.00
2018-10-19T05:30:11.021Z,100.00
2018-10-19T05:32:40.035Z,100.00
2018-10-19T05:35:08.771Z,100.00
2018-10-19T05:37:37.740Z,100.00
2018-10-19T05:40:06.992Z,100.00
2018-10-19T05:42:35.291Z,100.00
2018-10-19T05:45:03.741Z,100.00
2018-10-19T05:47:32.029Z,100.00
2018-10-19T05:50:00.306Z,100.00
2018-10-19T05:52:28.590Z,100.00
2018-10-19T05:54:56.704Z,100.00
2018-10-19T05:57:24.980Z,100.00
2018-10-19T05:59:53.167Z,100.00
2018-10-19T06:02:21.407Z,100.00
2018-10-19T06:04:49.555Z,100.00
2018-10-19T06:07:17.852Z,100.00
2018-10-19T06:09:45.984Z,100.00
2018-10-19T06:12:14.124Z,100.00
2018-10-19T06:14:42.262Z,100.00
2018-10-19T06:17:10.750Z,100.00
2018-10-19T06:19:39.013Z,100.00
2018-10-19T06:22:07.211Z,100.00
2018-10-19T06:24:35.464Z,100.00
2018-10-19T06:27:03.807Z,100.00
2018-10-19T06:29:31.919Z,100.00
2018-10-19T06:32:00.169Z,100.00
2018-10-19T06:34:28.300Z,100.00
2018-10-19T06:36:56.567Z,100.00
2018-10-19T06:39:24.994Z,100.00
2018-10-19T06:41:53.289Z,100.00
2018-10-19T06:44:21.567Z,100.00
2018-10-19T06:46:50.135Z,100.00
2018-10-19T06:49:18.157Z,100.00
2018-10-19T06:51:46.335Z,100.00
2018-10-19T06:54:14.528Z,100.00
2018-10-19T06:56:42.697Z,100.00
2018-10-19T06:59:11.251Z,100.00
2018-10-19T07:01:39.291Z,100.00
2018-10-19T07:04:07.579Z,100.00
2018-10-19T07:06:35.848Z,100.00
2018-10-19T07:09:05.081Z,100.00
2018-10-19T07:11:33.607Z,100.00
2018-10-19T07:14:02.041Z,100.00
2018-10-19T07:16:30.147Z,100.00
2018-10-19T07:18:58.473Z,100.00
2018-10-19T07:21:26.709Z,100.00
2018-10-19T07:23:55.044Z,100.00
2018-10-19T07:26:23.389Z,100.00
2018-10-19T07:28:51.515Z,100.00
2018-10-19T07:31:19.657Z,100.00
2018-10-19T07:33:47.884Z,100.00
2018-10-19T07:36:16.125Z,100.00
2018-10-19T07:38:44.406Z,100.00
2018-10-19T07:41:12.604Z,100.00
2018-10-19T07:43:40.716Z,100.00
2018-10-19T07:46:08.972Z,100.00
2018-10-19T07:48:37.194Z,100.00
2018-10-19T07:51:05.544Z,100.00
2018-10-19T07:53:33.686Z,100.00
2018-10-19T07:56:02.080Z,100.00
2018-10-19T07:58:30.379Z,100.00
2018-10-19T08:00:58.584Z,100.00
2018-10-19T08:03:26.690Z,100.00
2018-10-19T08:05:54.986Z,100.00
2018-10-19T08:08:23.186Z,100.00
2018-10-19T08:10:51.500Z,100.00
2018-10-19T08:13:19.771Z,100.00
2018-10-19T08:15:48.248Z,100.00
2018-10-19T08:18:16.390Z,100.00
2018-10-19T08:20:45.688Z,100.00
2018-10-19T08:23:14.015Z,100.00
2018-10-19T08:25:42.222Z,100.00
2018-10-19T08:28:10.622Z,100.00
2018-10-19T08:30:38.902Z,100.00
2018-10-19T08:33:07.221Z,100.00
2018-10-19T08:35:35.332Z,100.00
2018-10-19T08:38:03.577Z,98.90
2018-10-19T08:40:31.992Z,98.49
2018-10-19T08:43:00.255Z,97.95
2018-10-19T08:45:28.364Z,98.18
2018-10-19T08:47:56.532Z,97.45
2018-10-19T08:50:24.704Z,98.55
2018-10-19T08:52:52.883Z,98.58
2018-10-19T08:55:21.000Z,98.30
2018-10-19T08:57:49.286Z,97.12
2018-10-19T09:00:17.633Z,97.56
2018-10-19T09:02:45.711Z,97.46
2018-10-19T09:05:13.980Z,97.45
2018-10-19T09:07:42.075Z,96.10
2018-10-19T09:10:10.214Z,95.52
2018-10-19T09:12:38.731Z,96.12
2018-10-19T09:15:07.136Z,95.32
2018-10-19T09:17:35.269Z,95.98
2018-10-19T09:20:03.516Z,94.98
2018-10-19T09:22:31.760Z,93.13
2018-10-19T09:24:59.891Z,92.07
2018-10-19T09:27:28.137Z,90.82
2018-10-19T09:29:56.245Z,90.70
2018-10-19T09:32:24.623Z,90.87
2018-10-19T09:34:53.086Z,90.15
2018-10-19T09:37:21.729Z,89.83
2018-10-19T09:39:49.980Z,89.60
2018-10-19T09:42:18.728Z,88.29
2018-10-19T09:44:46.854Z,88.11
2018-10-19T09:47:15.270Z,87.78
2018-10-19T09:49:43.400Z,86.75
2018-10-19T09:52:11.516Z,87.33
2018-10-19T09:54:39.696Z,87.93
2018-10-19T09:57:08.035Z,87.55
2018-10-19T09:59:36.157Z,87.42
2018-10-19T10:02:04.451Z,87.68
2018-10-19T10:04:32.531Z,87.13
2018-10-19T10:07:00.849Z,86.58
2018-10-19T10:09:29.113Z,85.91
2018-10-19T10:11:57.545Z,85.65
2018-10-19T10:14:25.968Z,84.95
2018-10-19T10:16:54.258Z,84.06
2018-10-19T10:19:22.464Z,83.93
2018-10-19T10:21:50.734Z,83.21
2018-10-19T10:24:18.858Z,82.54
2018-10-19T10:26:47.133Z,81.38
2018-10-19T10:29:15.423Z,81.71
2018-10-19T10:31:43.624Z,81.88
2018-10-19T10:34:12.063Z,81.04
2018-10-19T10:36:40.405Z,80.31
2018-10-19T10:39:11.488Z,79.96
2018-10-19T10:41:39.627Z,79.56
2018-10-19T10:44:07.953Z,79.67
2018-10-19T10:46:36.118Z,78.80
2018-10-19T10:49:04.374Z,78.45
2018-10-19T10:51:32.573Z,78.12
2018-10-19T10:54:00.988Z,77.58
2018-10-19T10:56:29.245Z,77.38
2018-10-19T10:58:57.505Z,76.72
2018-10-19T11:01:25.642Z,75.48
2018-10-19T11:03:53.997Z,75.50
2018-10-19T11:06:22.489Z,75.13
2018-10-19T11:08:50.716Z,75.58
2018-10-19T11:11:18.828Z,75.12
2018-10-19T11:13:47.038Z,75.98
2018-10-19T11:16:15.471Z,75.81
2018-10-19T11:18:43.961Z,74.14
2018-10-19T11:21:12.304Z,74.20
2018-10-19T11:23:40.491Z,71.90
2018-10-19T11:26:08.878Z,72.28
2018-10-19T11:28:37.179Z,72.02
2018-10-19T11:31:05.693Z,72.84
2018-10-19T11:33:33.870Z,72.37
2018-10-19T11:36:02.283Z,72.27
2018-10-19T11:38:30.444Z,72.05
2018-10-19T11:40:58.627Z,71.38
2018-10-19T11:43:26.767Z,71.54
2018-10-19T11:45:54.975Z,72.01
2018-10-19T11:48:24.159Z,70.19
2018-10-19T11:50:52.297Z,69.87
2018-10-19T11:53:20.428Z,70.54
2018-10-19T11:55:48.901Z,70.38
2018-10-19T11:58:17.135Z,70.00
2018-10-19T12:00:45.367Z,69.09
2018-10-19T12:03:13.546Z,69.55
2018-10-19T12:05:41.948Z,69.13
2018-10-19T12:08:10.217Z,68.81
2018-10-19T12:10:38.705Z,68.65
2018-10-19T12:13:07.307Z,68.26
2018-10-19T12:15:35.714Z,68.97
2018-10-19T12:18:04.201Z,68.13
2018-10-19T12:20:32.424Z,68.13
2018-10-19T12:23:00.795Z,68.31
2018-10-19T12:25:29.230Z,68.68
2018-10-19T12:27:57.632Z,67.97
2018-10-19T12:30:26.038Z,68.12
2018-10-19T12:32:54.355Z,67.95
2018-10-19T12:35:22.830Z,67.81
2018-10-19T12:37:51.099Z,68.04
2018-10-19T12:40:19.332Z,68.47
2018-10-19T12:42:47.535Z,68.87
2018-10-19T12:46:30.508Z,68.78
2018-10-19T12:48:58.769Z,68.95
2018-10-19T12:51:26.912Z,69.12
2018-10-19T12:53:55.360Z,67.87
2018-10-19T12:56:23.741Z,68.08
2018-10-19T12:58:52.782Z,66.97
2018-10-19T13:01:21.799Z,66.97
2018-10-19T13:03:50.214Z,66.80
2018-10-19T13:06:18.507Z,67.14
2018-10-19T13:08:46.673Z,66.50
2018-10-19T13:11:14.864Z,66.80
2018-10-19T13:13:43.136Z,67.07
2018-10-19T13:16:11.457Z,67.51
2018-10-19T13:18:39.861Z,67.28
2018-10-19T13:21:08.400Z,66.92
2018-10-19T13:23:36.817Z,67.09
2018-10-19T13:26:05.118Z,67.16
2018-10-19T13:28:33.569Z,66.83
2018-10-19T13:31:02.013Z,67.54
2018-10-19T13:33:30.308Z,67.12
2018-10-19T13:35:58.486Z,67.02
2018-10-19T13:38:26.825Z,66.33
2018-10-19T13:40:55.604Z,65.90
2018-10-19T13:43:24.292Z,65.53
2018-10-19T13:45:53.090Z,65.08
2018-10-19T13:48:21.892Z,65.26
2018-10-19T13:50:50.192Z,65.12
2018-10-19T13:53:18.632Z,63.83
2018-10-19T13:55:47.108Z,63.36
2018-10-19T13:58:15.430Z,63.14
2018-10-19T14:00:43.784Z,63.36
2018-10-19T14:03:12.270Z,62.74
2018-10-19T14:05:41.125Z,62.25
2018-10-19T14:08:09.296Z,62.55
2018-10-19T14:10:37.455Z,63.00
2018-10-19T14:13:05.880Z,63.65
2018-10-19T14:15:34.147Z,63.69
2018-10-19T14:18:02.328Z,63.20
2018-10-19T14:20:30.499Z,62.51
2018-10-19T14:22:59.481Z,62.97
2018-10-19T14:25:27.903Z,63.06
2018-10-19T14:27:56.192Z,62.13
2018-10-19T14:30:24.697Z,62.24
2018-10-19T14:32:53.272Z,63.30
2018-10-19T14:35:21.388Z,63.15
2018-10-19T14:37:49.809Z,63.02
2018-10-19T14:40:19.429Z,62.71
2018-10-19T14:42:47.988Z,63.67
2018-10-19T14:45:16.833Z,63.35
2018-10-19T14:47:45.912Z,63.34
2018-10-19T14:50:15.471Z,63.16
2018-10-19T14:52:43.789Z,63.04
2018-10-19T14:55:13.759Z,63.16
2018-10-19T14:57:42.262Z,63.34
2018-10-19T15:00:12.717Z,62.89
2018-10-19T15:02:41.188Z,63.48
2018-10-19T15:05:11.153Z,63.33
2018-10-19T15:07:39.613Z,64.08
2018-10-19T15:10:14.105Z,63.82
2018-10-19T15:12:42.701Z,63.34
2018-10-19T15:15:12.640Z,63.46
2018-10-19T15:17:41.054Z,63.70
2018-10-19T15:20:09.326Z,64.52
2018-10-19T15:22:37.841Z,64.42
2018-10-19T15:25:06.825Z,64.77
2018-10-19T15:27:34.977Z,65.10
2018-10-19T15:30:03.440Z,65.08
2018-10-19T15:32:31.843Z,65.44
2018-10-19T15:35:00.186Z,66.01
2018-10-19T15:37:28.471Z,65.73
2018-10-19T15:39:56.615Z,66.08
2018-10-19T15:42:24.865Z,66.30
2018-10-19T15:44:53.628Z,66.14
2018-10-19T15:47:25.234Z,67.08
2018-10-19T15:49:54.769Z,67.31
2018-10-19T15:52:23.320Z,67.14
2018-10-19T15:54:51.884Z,67.43
2018-10-19T15:57:20.272Z,67.82
2018-10-19T15:59:48.408Z,68.17
2018-10-19T16:02:17.044Z,68.13
2018-10-19T16:04:45.852Z,68.48
2018-10-19T16:07:14.331Z,68.68
2018-10-19T16:09:42.652Z,69.03
2018-10-19T16:12:11.026Z,69.86
2018-10-19T16:14:39.313Z,69.71
2018-10-19T16:17:07.530Z,70.52
2018-10-19T16:19:36.073Z,70.86
2018-10-19T16:22:04.527Z,71.43
2018-10-19T16:24:32.904Z,71.72
2018-10-19T16:27:01.371Z,72.89
2018-10-19T16:29:29.532Z,73.97
2018-10-19T16:31:57.691Z,74.35
2018-10-19T16:34:26.188Z,74.53
2018-10-19T16:36:54.700Z,74.53
2018-10-19T16:39:23.101Z,75.89
2018-10-19T16:41:51.507Z,76.52
2018-10-19T16:44:19.817Z,76.26
2018-10-19T16:46:48.107Z,76.63
2018-10-19T16:49:16.386Z,76.91
2018-10-19T16:51:44.578Z,77.04
2018-10-19T16:54:12.870Z,77.31
2018-10-19T16:56:41.357Z,77.79
2018-10-19T16:59:12.664Z,78.08
2018-10-19T17:01:40.921Z,79.08
2018-10-19T17:04:09.502Z,78.87
2018-10-19T17:06:37.932Z,79.49
2018-10-19T17:09:09.773Z,79.73
2018-10-19T17:11:38.116Z,80.15
2018-10-19T17:14:06.301Z,81.12
2018-10-19T17:16:34.548Z,81.35
2018-10-19T17:19:02.945Z,82.04
2018-10-19T17:21:31.194Z,82.62
2018-10-19T17:23:59.483Z,82.84
2018-10-19T17:26:27.603Z,83.82
2018-10-19T17:28:55.852Z,83.47
2018-10-19T17:31:24.141Z,83.78
2018-10-19T17:33:52.564Z,83.48
2018-10-19T17:36:20.660Z,83.59
2018-10-19T17:38:49.145Z,84.40
2018-10-19T17:41:17.607Z,84.66
2018-10-19T17:43:45.933Z,84.41
2018-10-19T17:46:14.292Z,84.50
2018-10-19T17:48:42.438Z,84.56
2018-10-19T17:51:10.725Z,84.68
2018-10-19T17:53:38.883Z,84.66
2018-10-19T17:56:07.032Z,85.05
2018-10-19T17:58:35.532Z,85.38
2018-10-19T18:01:03.727Z,85.96
2018-10-19T18:03:32.102Z,86.73
2018-10-19T18:06:00.542Z,86.66
2018-10-19T18:08:28.883Z,86.91
2018-10-19T18:10:57.059Z,88.21
2018-10-19T18:13:25.319Z,88.73
2018-10-19T18:15:53.564Z,88.99
2018-10-19T18:18:21.831Z,89.22
2018-10-19T18:20:50.503Z,89.69
2018-10-19T18:23:19.067Z,89.48
2018-10-19T18:25:47.241Z,89.17
2018-10-19T18:28:15.371Z,89.24
2018-10-19T18:30:43.491Z,91.08
2018-10-19T18:33:11.700Z,91.42
2018-10-19T18:35:39.844Z,91.96
2018-10-19T18:38:08.029Z,91.52
2018-10-19T18:40:36.840Z,92.12
2018-10-19T18:43:05.439Z,92.36
2018-10-19T18:45:33.735Z,93.59
2018-10-19T18:48:02.201Z,93.38
2018-10-19T18:50:30.676Z,93.05
2018-10-19T18:52:58.737Z,93.54
2018-10-19T18:55:27.159Z,93.52
2018-10-19T18:57:55.815Z,94.47
2018-10-19T19:00:24.232Z,94.60
2018-10-19T19:02:52.408Z,95.37
2018-10-19T19:05:20.689Z,95.54
2018-10-19T19:07:48.865Z,96.56
2018-10-19T19:10:17.260Z,97.39
2018-10-19T19:12:45.424Z,97.67
2018-10-19T19:15:13.564Z,97.48
2018-10-19T19:17:41.746Z,97.48
2018-10-19T19:20:15.226Z,97.47
2018-10-19T19:22:43.752Z,97.57
2018-10-19T19:25:17.331Z,98.26
2018-10-19T19:27:46.015Z,98.64
2018-10-19T19:30:14.473Z,99.29
2018-10-19T19:32:47.936Z,99.32
2018-10-19T19:35:16.341Z,99.49
2018-10-19T19:37:44.376Z,99.67
2018-10-19T19:40:12.744Z,99.45
2018-10-19T19:42:43.731Z,100.00
2018-10-19T19:45:11.900Z,100.00
2018-10-19T19:47:45.475Z,100.00
2018-10-19T19:50:13.810Z,100.00
2018-10-19T19:52:42.212Z,100.00
2018-10-19T19:55:10.636Z,100.00
2018-10-19T19:57:40.063Z,100.00
2018-10-19T20:00:08.340Z,100.00
2018-10-19T20:02:36.700Z,100.00
2018-10-19T20:05:05.574Z,100.00
2018-10-19T20:07:33.829Z,100.00
2018-10-19T20:10:02.124Z,100.00
2018-10-19T20:12:30.525Z,100.00
2018-10-19T20:14:58.971Z,100.00
2018-10-19T20:17:27.450Z,100.00
2018-10-19T20:19:55.899Z,100.00
2018-10-19T20:22:24.334Z,100.00
2018-10-19T20:24:52.733Z,100.00
2018-10-19T20:27:21.031Z,100.00
2018-10-19T20:29:49.416Z,100.00
2018-10-19T20:32:17.871Z,100.00
2018-10-19T20:34:46.088Z,100.00
2018-10-19T20:37:14.352Z,100.00
2018-10-19T20:39:42.645Z,100.00
2018-10-19T20:42:11.128Z,100.00
2018-10-19T20:44:39.272Z,100.00
2018-10-19T20:47:07.613Z,100.00
2018-10-19T20:49:35.968Z,100.00
2018-10-19T20:52:04.105Z,100.00
2018-10-19T20:54:32.423Z,100.00
2018-10-19T20:57:00.639Z,100.00
2018-10-19T20:59:28.932Z,100.00
2018-10-19T21:01:57.397Z,100.00
2018-10-19T21:04:26.059Z,100.00
2018-10-19T21:06:54.417Z,100.00
2018-10-19T21:09:22.560Z,100.00
2018-10-19T21:11:50.709Z,100.00
2018-10-19T21:14:18.955Z,100.00
2018-10-19T21:16:47.280Z,100.00
2018-10-19T21:19:15.492Z,100.00
2018-10-19T21:21:43.683Z,100.00
2018-10-19T21:24:13.029Z,100.00
2018-10-19T21:26:41.370Z,100.00
2018-10-19T21:29:09.736Z,100.00
2018-10-19T21:31:37.999Z,100.00
2018-10-19T21:34:06.236Z,100.00
2018-10-19T21:36:34.417Z,100.00
2018-10-19T21:39:02.780Z,100.00
2018-10-19T21:41:31.128Z,100.00
2018-10-19T21:43:59.358Z,100.00
2018-10-19T21:46:27.847Z,100.00
2018-10-19T21:48:56.179Z,100.00
2018-10-19T21:51:24.346Z,100.00
2018-10-19T21:53:52.648Z,100.00
2018-10-19T21:56:20.856Z,100.00
2018-10-19T21:58:48.990Z,100.00
2018-10-19T22:02:36.943Z,100.00
2018-10-19T22:05:05.303Z,100.00
2018-10-19T22:07:33.713Z,100.00
2018-10-19T22:10:01.803Z,100.00
2018-10-19T22:12:30.062Z,100.00
2018-10-19T22:14:58.260Z,100.00
2018-10-19T22:17:26.504Z,100.00
2018-10-19T22:19:54.639Z,100.00
2018-10-19T22:22:22.820Z,100.00
2018-10-19T22:24:50.959Z,100.00
2018-10-19T22:27:19.113Z,100.00
2018-10-19T22:29:47.335Z,100.00
2018-10-19T22:32:15.790Z,100.00
2018-10-19T22:34:44.167Z,100.00
2018-10-19T22:37:12.580Z,100.00
2018-10-19T22:39:40.627Z,100.00
2018-10-19T22:42:08.813Z,100.00
2018-10-19T22:44:37.349Z,100.00
2018-10-19T22:47:05.759Z,100.00
2018-10-19T22:49:34.192Z,100.00
2018-10-19T22:52:02.349Z,100.00
2018-10-19T22:54:30.499Z,100.00
2018-10-19T22:56:58.692Z,100.00
2018-10-19T22:59:26.983Z,100.00
2018-10-19T23:01:55.184Z,100.00
2018-10-19T23:04:23.409Z,100.00
2018-10-19T23:06:51.635Z,100.00
2018-10-19T23:09:19.888Z,100.00
2018-10-19T23:11:48.070Z,100.00
2018-10-19T23:14:17.132Z,100.00
2018-10-19T23:16:45.281Z,100.00
2018-10-19T23:19:13.586Z,100.00
2018-10-19T23:21:42.047Z,100.00
2018-10-19T23:24:10.423Z,100.00
2018-10-19T23:26:38.596Z,100.00
2018-10-19T23:29:06.803Z,100.00
2018-10-19T23:31:35.125Z,100.00
2018-10-19T23:34:03.580Z,100.00
2018-10-19T23:36:31.834Z,100.00
2018-10-19T23:39:00.028Z,100.00
2018-10-19T23:41:28.178Z,100.00
2018-10-19T23:43:56.340Z,100.00
2018-10-19T23:46:24.516Z,100.00
2018-10-19T23:48:52.742Z,100.00
2018-10-19T23:51:21.035Z,100.00
2018-10-19T23:53:49.160Z,100.00
2018-10-19T23:56:18.639Z,100.00
2018-10-19T23:58:46.888Z,100.00
